createdAt,value
2022-08-27T03:41:19.311Z,3.3875
2022-08-27T03:44:24.861Z,3.15
2022-08-27T05:21:38.056Z,3.9749999999999996
2022-08-27T05:24:40.582Z,3.2125000000000004
2022-08-27T05:27:36.565Z,2.925
2022-08-27T05:31:17.748Z,4.15
2022-08-27T05:34:25.442Z,3.25
2022-08-27T05:37:16.198Z,3.1624999999999996
2022-08-27T05:41:19.615Z,3.9499999999999993
2022-08-27T05:44:40.735Z,3.525
2022-08-27T05:47:16.565Z,3.1750000000000003
2022-08-27T05:51:25.343Z,3.7
2022-08-27T05:54:19.965Z,2.8625
2022-08-27T05:57:16.954Z,3.5250000000000004
2022-08-27T06:01:21.499Z,3.075
2022-08-27T06:04:19.290Z,4.1000000000000005
2022-08-27T06:07:17.233Z,3.1875
2022-08-27T06:11:17.099Z,3.875
2022-08-27T06:14:16.919Z,3.8125
2022-08-27T06:17:16.948Z,3.8625000000000003
2022-08-27T06:21:21.475Z,3.75
2022-08-27T06:24:16.613Z,3.1125
2022-08-27T06:27:19.001Z,3.0625
2022-08-27T06:31:18.304Z,3.775
2022-08-27T06:34:16.002Z,3.4999999999999996
2022-08-27T06:37:16.102Z,3.175
2022-08-27T06:41:23.542Z,3.6625
2022-08-27T06:44:16.774Z,3.5125
2022-08-27T06:47:16.634Z,3.5500000000000003
2022-08-27T06:51:19.073Z,3.5625
2022-08-27T06:54:16.425Z,3.1375
2022-08-27T06:57:16.547Z,3.4624999999999995
2022-08-27T07:01:18.409Z,3.9
2022-08-27T07:04:19.003Z,3.9375
2022-08-27T07:07:31.818Z,3.4499999999999997
2022-08-27T07:11:16.455Z,3.775
2022-08-27T07:14:16.766Z,3.475
2022-08-27T07:17:17.383Z,3.3625
2022-08-27T07:21:16.757Z,4.262499999999999
2022-08-27T07:24:17.061Z,3.8125
2022-08-27T07:27:16.717Z,3.8375
2022-08-27T07:31:20.327Z,4.55
2022-08-27T07:34:18.087Z,3.4875
2022-08-27T07:37:17.039Z,3.325
2022-08-27T07:41:15.954Z,4.5874999999999995
2022-08-27T08:01:16.762Z,3.4625000000000004
2022-08-27T08:04:20.068Z,3.7
2022-08-27T08:07:16.474Z,3.1125
2022-08-27T08:11:17.546Z,3.725
2022-08-27T08:14:17.636Z,3.3875
2022-08-27T08:17:17.030Z,3.7125
2022-08-27T08:21:15.783Z,3.3625
2022-08-27T08:24:16.743Z,2.75
2022-08-27T08:27:16.368Z,3.4
2022-08-27T08:31:16.674Z,3.1875
2022-08-27T08:34:17.902Z,3.1375
2022-08-27T08:37:16.792Z,2.6125
2022-08-27T08:41:39.329Z,3.5375
2022-08-27T08:44:23.836Z,3.7625
2022-08-27T08:47:21.073Z,3.2750000000000004
2022-08-27T08:51:22.008Z,3.3499999999999996
2022-08-27T08:54:19.985Z,3.1125
2022-08-27T08:57:22.024Z,2.9000000000000004
2022-08-27T09:01:19.948Z,3.75
2022-08-27T09:04:17.383Z,3
2022-08-27T09:07:28.069Z,3
2022-08-27T09:11:26.949Z,3.075
2022-08-27T09:14:29.753Z,3.3375000000000004
2022-08-27T09:17:16.648Z,3.925
2022-08-27T09:31:18.969Z,3.1875
2022-08-27T10:11:20.044Z,2.925
2022-08-27T10:14:25.697Z,2.8499999999999996
2022-08-27T10:17:23.060Z,3.125
2022-08-27T10:21:28.786Z,3.0625
2022-08-27T10:24:26.153Z,2.3375
2022-08-27T10:27:26.774Z,3.15
2022-08-27T10:31:25.103Z,3.2124999999999995
2022-08-27T10:34:31.302Z,3.3625
2022-08-27T10:37:36.820Z,3.1125
2022-08-27T10:41:21.884Z,2.55
2022-08-27T10:44:37.838Z,3.2375
2022-08-27T10:47:29.918Z,2.75
2022-08-27T10:51:24.184Z,2.575
2022-08-27T10:54:26.366Z,2.8499999999999996
2022-08-27T11:01:43.028Z,3.125
2022-08-27T11:04:36.934Z,2.775
2022-08-27T11:07:37.260Z,2.825
2022-08-27T11:12:12.746Z,2.5875
2022-08-27T11:14:26.757Z,3.0875
2022-08-27T11:17:24.013Z,3.2375
2022-08-27T11:21:23.121Z,2.6875
2022-08-27T11:24:29.937Z,3.2874999999999996
2022-08-27T11:27:20.412Z,3.0875
2022-08-27T11:31:22.672Z,2.7625
2022-08-27T11:34:24.065Z,2.6500000000000004
2022-08-27T11:37:33.548Z,3.0125
2022-08-27T11:41:45.395Z,2.5
2022-08-27T11:44:20.389Z,2.4124999999999996
2022-08-27T11:47:20.389Z,2.2125
2022-08-27T11:51:29.937Z,2.4125
2022-08-27T11:54:28.501Z,2.85
2022-08-27T11:57:28.295Z,3.6125
2022-08-27T12:01:25.387Z,3.075
2022-08-27T12:04:31.650Z,3.0875
2022-08-27T12:07:32.121Z,2.9625
2022-08-27T12:11:28.749Z,3.7750000000000004
2022-08-27T12:14:35.385Z,3.3625000000000003
2022-08-27T12:17:25.864Z,2.8125
2022-08-27T12:21:32.585Z,3.0625
2022-08-27T12:24:40.701Z,3.0250000000000004
2022-08-27T12:27:29.389Z,2.9125000000000005
2022-08-27T12:41:25.910Z,2.6125
2022-08-27T12:51:24.079Z,2.7375
2022-08-27T12:54:30.097Z,2.2
2022-08-27T12:57:26.407Z,2.8375000000000004
2022-08-27T13:01:30.986Z,2.25
2022-08-27T13:04:22.274Z,1.525
2022-08-27T13:07:25.632Z,1.7125
2022-08-27T13:11:20.815Z,1.7625
2022-08-27T13:14:20.628Z,1.9625000000000001
2022-08-27T13:17:19.973Z,2
2022-08-27T13:21:21.193Z,2.35
2022-08-27T13:24:25.777Z,2.075
2022-08-27T13:27:24.051Z,2.2375000000000003
2022-08-27T13:31:22.221Z,2.575
2022-08-27T13:34:18.988Z,2.4124999999999996
2022-08-27T13:37:23.972Z,2.0124999999999997
2022-08-27T13:41:23.465Z,2.4875
2022-08-27T13:44:22.762Z,2.275
2022-08-27T13:47:19.635Z,2.35
2022-08-27T13:51:24.540Z,2.225
2022-08-27T13:54:18.800Z,2.1875
2022-08-27T13:57:24.441Z,1.725
2022-08-27T14:01:29.974Z,2.775
2022-08-27T14:04:23.257Z,2.7
2022-08-27T14:07:33.473Z,2.075
2022-08-27T14:11:22.954Z,2.3
2022-08-27T14:14:17.524Z,2.175
2022-08-27T14:17:24.862Z,1.5750000000000002
2022-08-27T14:21:16.244Z,2.8375
2022-08-27T14:24:16.498Z,2.1374999999999997
2022-08-27T14:27:17.081Z,2.3500000000000005
2022-08-27T14:31:18.497Z,2.5875
2022-08-27T14:34:17.226Z,2.6374999999999997
2022-08-27T14:37:17.170Z,2.3375
2022-08-27T14:41:16.428Z,2.6625
2022-08-27T14:44:16.676Z,2.3625000000000003
2022-08-27T14:47:16.550Z,2.425
2022-08-27T14:51:22.684Z,2.475
2022-08-27T14:54:16.377Z,2.1125
2022-08-27T14:57:16.352Z,2.425
2022-08-27T15:31:36.691Z,2.125
2022-08-27T15:34:36.566Z,2.0375
2022-08-27T15:37:36.762Z,1.8625000000000003
2022-08-27T15:41:17.005Z,2.025
2022-08-27T15:44:16.315Z,2.1875
2022-08-27T15:47:19.535Z,1.275
2022-08-27T15:51:21.878Z,2.2375
2022-08-27T15:54:16.775Z,1.875
2022-08-27T15:57:18.100Z,1.775
2022-08-27T16:01:23.387Z,1.525
2022-08-27T16:04:18.233Z,2.1500000000000004
2022-08-27T16:07:17.772Z,1.25
2022-08-27T16:11:16.860Z,1.875
2022-08-27T16:14:17.164Z,1.4749999999999999
2022-08-27T16:17:17.130Z,1.725
2022-08-27T16:21:16.799Z,1.9625000000000001
2022-08-27T16:24:17.325Z,1.4
2022-08-27T16:27:16.794Z,1.2625
2022-08-27T16:31:17.334Z,1.8125
2022-08-27T16:34:23.446Z,1.5
2022-08-27T16:37:16.975Z,1.3
2022-08-27T16:41:16.785Z,1.325
2022-08-27T16:44:17.802Z,1.2125
2022-08-27T16:47:16.493Z,1.375
2022-08-27T16:51:18.678Z,1.4375
2022-08-27T16:54:17.416Z,1.625
2022-08-27T16:57:16.723Z,1.55
2022-08-27T17:01:20.118Z,1.65
2022-08-27T17:04:26.537Z,1.425
2022-08-27T17:07:17.038Z,1.5625
2022-08-27T17:11:18.887Z,1.9874999999999998
2022-08-27T17:14:16.980Z,1.4875
2022-08-27T17:17:17.790Z,1.2000000000000002
2022-08-27T17:21:20.264Z,2
2022-08-27T17:24:16.672Z,1.2875
2022-08-27T17:27:20.412Z,1.4875
2022-08-27T17:31:27.115Z,1.8875
2022-08-27T17:34:22.258Z,1.675
2022-08-27T17:37:16.740Z,1.6
2022-08-27T17:41:24.209Z,1.7
2022-08-27T17:44:22.413Z,1.55
2022-08-27T17:47:16.840Z,1.4375
2022-08-27T17:51:17.035Z,1.6
2022-08-27T17:54:26.057Z,1.9625
2022-08-27T17:57:19.104Z,1.4000000000000001
2022-08-27T18:01:20.224Z,1.875
2022-08-27T18:04:17.665Z,0.9125
2022-08-27T18:07:17.261Z,1.5125000000000002
2022-08-27T18:11:17.168Z,1.9874999999999998
2022-08-27T18:14:18.708Z,1.6875000000000002
2022-08-27T18:17:16.764Z,1.3
2022-08-27T18:21:25.455Z,1.6749999999999998
2022-08-27T18:24:17.074Z,1.8375
2022-08-27T18:27:17.021Z,1.4
2022-08-27T18:31:18.985Z,1.275
2022-08-27T18:34:20.710Z,1.1875
2022-08-27T18:37:16.844Z,1.4125
2022-08-27T18:41:17.870Z,1.675
2022-08-27T18:44:17.537Z,1.2375
2022-08-27T18:47:16.648Z,1.4874999999999998
2022-08-27T18:51:17.275Z,1.5250000000000001
2022-08-27T18:54:16.449Z,1.3875000000000002
2022-08-27T18:57:16.174Z,1.85
2022-08-27T19:01:19.513Z,2.3625
2022-08-27T19:04:19.018Z,1.7
2022-08-27T19:07:16.667Z,1.625
2022-08-27T19:11:17.060Z,2.075
2022-08-27T19:14:16.884Z,2.0625
2022-08-27T19:17:23.983Z,1.9749999999999999
2022-08-27T19:21:16.588Z,2.0625
2022-08-27T19:24:17.747Z,1.775
2022-08-27T19:27:23.027Z,1.5875
2022-08-27T19:31:16.511Z,1.975
2022-08-27T19:34:17.038Z,1.6875
2022-08-27T19:37:21.992Z,1.75
2022-08-27T19:41:17.877Z,1.4625
2022-08-27T19:44:16.623Z,1.45
2022-08-27T19:47:21.336Z,1.6
2022-08-27T19:51:18.277Z,2.775
2022-08-27T19:54:17.179Z,1.9125
2022-08-27T19:57:16.798Z,1.425
2022-08-27T20:01:16.093Z,2.275
2022-08-27T20:04:16.154Z,2.1375
2022-08-27T20:07:16.369Z,1.8125
2022-08-27T20:11:17.300Z,2.0375
2022-08-27T20:14:17.524Z,1.6
2022-08-27T20:17:21.809Z,2.025
2022-08-27T20:21:15.996Z,1.9874999999999998
2022-08-27T20:24:16.871Z,2
2022-08-27T20:27:16.091Z,2.55
2022-08-27T20:31:18.206Z,2.15
2022-08-27T20:34:16.531Z,1.6124999999999998
2022-08-27T20:37:17.400Z,1.5999999999999999
2022-08-27T20:41:16.257Z,1.675
2022-08-27T20:44:17.050Z,1.55
2022-08-27T20:47:17.842Z,1.4875
2022-08-27T20:51:17.342Z,1.7875
2022-08-27T20:54:16.615Z,1.9375
2022-08-27T20:57:16.544Z,2.525
2022-08-27T21:01:16.636Z,2.2874999999999996
2022-08-27T21:04:16.501Z,1.6125
2022-08-27T21:07:19.803Z,3.05
2022-08-27T21:11:17.039Z,2.225
2022-08-27T21:14:16.315Z,2.025
2022-08-27T21:17:16.470Z,1.8375
2022-08-27T21:21:16.002Z,2.7249999999999996
2022-08-27T21:24:16.757Z,1.625
2022-08-27T21:27:18.019Z,2.025
2022-08-27T21:31:17.174Z,2.1
2022-08-27T21:34:16.499Z,2.15
2022-08-27T21:37:17.711Z,1.8875000000000002
2022-08-27T21:41:17.414Z,1.725
2022-08-27T21:44:16.828Z,2.65
2022-08-27T21:47:16.748Z,2.275
2022-08-27T21:51:24.335Z,1.675
2022-08-27T21:54:16.713Z,1.5
2022-08-27T21:57:16.706Z,1.7875
2022-08-27T22:01:19.050Z,2.5375
2022-08-27T22:04:17.064Z,2.1500000000000004
2022-08-27T22:07:17.473Z,1.8375
2022-08-27T22:11:23.323Z,2.5
2022-08-27T22:14:16.736Z,1.9499999999999997
2022-08-27T22:17:16.657Z,1.9375
2022-08-27T22:21:16.311Z,2.275
2022-08-27T22:24:16.586Z,1.9249999999999998
2022-08-27T22:27:16.498Z,2.1374999999999997
2022-08-27T22:31:16.183Z,2.4875000000000003
2022-08-27T22:34:16.153Z,2.175
2022-08-27T22:37:16.200Z,2.7375
2022-08-27T22:41:18.503Z,2.0875
2022-08-27T22:44:16.537Z,1.9
2022-08-27T22:47:16.339Z,1.8125
2022-08-27T22:51:16.047Z,2.3
2022-08-27T22:54:16.829Z,2.625
2022-08-27T22:57:16.515Z,2.3875
2022-08-27T23:01:18.824Z,2.55
2022-08-27T23:04:16.521Z,2.25
2022-08-27T23:07:16.308Z,1.9625
2022-08-27T23:11:16.043Z,2.3125
2022-08-27T23:14:16.216Z,3.0250000000000004
2022-08-27T23:17:16.236Z,1.8375
2022-08-27T23:21:17.380Z,2.8125
2022-08-27T23:24:16.565Z,1.9
2022-08-27T23:27:32.337Z,2.7625
2022-08-27T23:31:16.224Z,2.4625
2022-08-27T23:34:16.957Z,2.275
2022-08-27T23:37:16.011Z,2.3875
2022-08-27T23:41:16.379Z,1.9625000000000001
2022-08-27T23:44:16.355Z,2.4875
2022-08-27T23:47:16.933Z,2.3
2022-08-27T23:51:16.856Z,3.2375
2022-08-27T23:54:16.706Z,1.9875
2022-08-27T23:57:16.996Z,1.825
